Time;durP1;ratioP1;P1;durP2;ratioP2;P2;SDS_P1;SDS_P2;PMS_P1;PMS_P2;Temp;Humidity;BMP_temperature;BMP_pressure;BME280_temperature;BME280_humidity;BME280_pressure;Samples;Min_cycle;Max_cycle;Signal;HPM_P1;HPM_P2
2022/08/06 00:03:39;;;;;;;0.10;0.10;;;;;;;;;;10460649;28;20381;-74
2022/08/06 00:08:40;;;;;;;0.10;0.10;;;;;;;;;;10502150;28;20321;-74
2022/08/06 00:13:42;;;;;;;1.02;0.20;;;;;;;;;;10489085;28;20308;-72
2022/08/06 00:18:43;;;;;;;0.20;0.20;;;;;;;;;;10493081;28;20305;-72
2022/08/06 00:23:44;;;;;;;0.20;0.20;;;;;;;;;;10487836;28;20603;-73
2022/08/06 00:28:48;;;;;;;0.20;0.20;;;;;;;;;;10499578;28;20278;-73
2022/08/06 00:33:55;;;;;;;0.20;0.20;;;;;;;;;;10493176;28;20316;-73
2022/08/06 00:38:57;;;;;;;0.20;0.20;;;;;;;;;;10490266;28;20263;-73
2022/08/06 00:43:59;;;;;;;0.20;0.20;;;;;;;;;;10495733;28;20227;-73
2022/08/06 00:49:00;;;;;;;0.20;0.20;;;;;;;;;;10496152;28;20241;-73
2022/08/06 00:54:01;;;;;;;0.10;0.10;;;;;;;;;;10495472;28;20229;-72
2022/08/06 00:59:03;;;;;;;0.30;0.13;;;;;;;;;;10495695;28;20220;-73
2022/08/06 01:04:04;;;;;;;0.20;0.20;;;;;;;;;;10488128;28;20295;-73
2022/08/06 01:09:05;;;;;;;0.20;0.10;;;;;;;;;;10491462;28;20271;-72
2022/08/06 01:14:07;;;;;;;0.15;0.15;;;;;;;;;;10490984;28;20705;-73
2022/08/06 01:19:11;;;;;;;0.15;0.15;;;;;;;;;;10491236;28;20225;-73
2022/08/06 01:24:12;;;;;;;0.22;0.22;;;;;;;;;;10494321;28;20214;-73
2022/08/06 01:29:13;;;;;;;0.20;0.20;;;;;;;;;;10489722;28;20209;-73
2022/08/06 01:34:19;;;;;;;1.17;0.20;;;;;;;;;;10474731;28;20220;-73
2022/08/06 01:39:22;;;;;;;0.65;0.28;;;;;;;;;;10489971;28;20217;-73
2022/08/06 01:44:26;;;;;;;0.20;0.20;;;;;;;;;;10485093;28;20213;-73
2022/08/06 01:49:29;;;;;;;0.30;0.30;;;;;;;;;;10496263;28;20226;-74
2022/08/06 01:54:35;;;;;;;0.30;0.30;;;;;;;;;;10457477;28;20213;-74
2022/08/06 01:59:38;;;;;;;0.10;0.10;;;;;;;;;;10481532;28;20216;-76
2022/08/06 02:04:40;;;;;;;0.22;0.22;;;;;;;;;;10462280;28;20210;-74
2022/08/06 02:09:43;;;;;;;0.32;0.20;;;;;;;;;;10467142;28;20218;-74
2022/08/06 02:15:11;;;;;;;0.20;0.20;;;;;;;;;;10486606;28;20280;-74
2022/08/06 02:20:12;;;;;;;0.30;0.30;;;;;;;;;;10445622;28;20945;-73
2022/08/06 02:25:15;;;;;;;0.20;0.20;;;;;;;;;;10479753;28;20187;-76
2022/08/06 02:30:16;;;;;;;0.20;0.20;;;;;;;;;;10477919;28;20206;-74
2022/08/06 02:35:18;;;;;;;0.20;0.20;;;;;;;;;;10476958;28;20836;-74
2022/08/06 02:40:22;;;;;;;0.20;0.20;;;;;;;;;;10494781;28;20178;-72
2022/08/06 02:45:30;;;;;;;0.13;0.13;;;;;;;;;;10472986;28;20277;-74
2022/08/06 02:50:36;;;;;;;0.25;0.20;;;;;;;;;;10457549;28;20236;-75
2022/08/06 02:55:39;;;;;;;0.50;0.30;;;;;;;;;;10437828;28;20221;-74
2022/08/06 03:00:42;;;;;;;0.20;0.20;;;;;;;;;;10489882;28;20263;-74
2022/08/06 03:05:45;;;;;;;0.17;0.17;;;;;;;;;;10496873;28;20356;-73
2022/08/06 03:10:47;;;;;;;0.20;0.20;;;;;;;;;;10489498;28;20620;-73
2022/08/06 03:15:48;;;;;;;0.50;0.30;;;;;;;;;;10490925;28;21163;-73
2022/08/06 03:20:50;;;;;;;0.20;0.20;;;;;;;;;;10492263;28;20223;-74
2022/08/06 03:25:51;;;;;;;1.00;0.20;;;;;;;;;;10484568;28;20221;-73
2022/08/06 03:30:53;;;;;;;0.43;0.28;;;;;;;;;;10455300;28;20226;-73
2022/08/06 03:35:55;;;;;;;0.30;0.30;;;;;;;;;;10496862;28;20300;-73
2022/08/06 03:40:57;;;;;;;0.75;0.30;;;;;;;;;;10497280;28;20953;-74
2022/08/06 03:46:00;;;;;;;0.20;0.20;;;;;;;;;;10496953;28;20275;-73
2022/08/06 03:51:03;;;;;;;0.45;0.40;;;;;;;;;;10493518;28;20296;-73
2022/08/06 03:56:07;;;;;;;0.20;0.20;;;;;;;;;;10465507;28;20206;-73
2022/08/06 04:01:14;;;;;;;0.20;0.20;;;;;;;;;;10491686;28;20224;-73
2022/08/06 04:06:18;;;;;;;0.30;0.30;;;;;;;;;;10518157;28;20263;-73
2022/08/06 04:11:19;;;;;;;0.47;0.30;;;;;;;;;;10536393;28;21030;-74
2022/08/06 04:16:21;;;;;;;0.30;0.30;;;;;;;;;;10537119;28;20760;-73
2022/08/06 04:21:23;;;;;;;0.20;0.20;;;;;;;;;;10527918;28;20213;-73
2022/08/06 04:26:27;;;;;;;0.38;0.20;;;;;;;;;;10506823;28;20584;-73
2022/08/06 04:31:29;;;;;;;0.30;0.30;;;;;;;;;;10540672;28;20216;-73
2022/08/06 04:36:31;;;;;;;0.20;0.20;;;;;;;;;;10509545;28;20213;-73
2022/08/06 04:41:32;;;;;;;0.22;0.22;;;;;;;;;;10533381;28;20303;-73
2022/08/06 04:46:34;;;;;;;0.35;0.35;;;;;;;;;;10534326;28;20265;-73
2022/08/06 04:51:35;;;;;;;0.30;0.30;;;;;;;;;;10502221;28;20216;-73
2022/08/06 04:56:36;;;;;;;0.20;0.20;;;;;;;;;;10530981;28;20212;-73
2022/08/06 05:01:37;;;;;;;0.30;0.30;;;;;;;;;;10537360;28;20323;-73
2022/08/06 05:06:45;;;;;;;0.32;0.32;;;;;;;;;;10506765;28;20220;-74
2022/08/06 05:11:51;;;;;;;0.30;0.30;;;;;;;;;;10531958;28;20594;-73
2022/08/06 05:16:54;;;;;;;0.47;0.30;;;;;;;;;;10531437;28;20353;-73
2022/08/06 05:21:56;;;;;;;0.30;0.20;;;;;;;;;;10531772;28;20209;-74
2022/08/06 05:26:57;;;;;;;0.30;0.30;;;;;;;;;;10535785;28;20277;-73
2022/08/06 05:31:59;;;;;;;0.63;0.40;;;;;;;;;;10538695;28;20217;-73
2022/08/06 05:37:00;;;;;;;1.05;0.28;;;;;;;;;;10531711;28;20212;-74
2022/08/06 05:42:01;;;;;;;0.30;0.30;;;;;;;;;;10507834;28;20692;-73
2022/08/06 05:47:07;;;;;;;0.60;0.22;;;;;;;;;;10526468;28;20220;-75
2022/08/06 05:52:12;;;;;;;0.15;0.15;;;;;;;;;;10527189;28;20214;-73
2022/08/06 05:57:15;;;;;;;0.65;0.20;;;;;;;;;;10540045;28;20224;-75
2022/08/06 06:02:17;;;;;;;0.80;0.30;;;;;;;;;;10528129;28;20282;-76
2022/08/06 06:07:19;;;;;;;0.25;0.25;;;;;;;;;;10497237;28;20339;-73
2022/08/06 06:12:22;;;;;;;0.47;0.20;;;;;;;;;;10478726;28;20709;-71
2022/08/06 06:17:42;;;;;;;0.20;0.20;;;;;;;;;;10517606;28;20275;-72
2022/08/06 06:23:00;;;;;;;0.20;0.20;;;;;;;;;;10522982;28;20283;-77
2022/08/06 06:28:18;;;;;;;0.17;0.17;;;;;;;;;;10519881;28;20700;-74
2022/08/06 06:33:23;;;;;;;0.50;0.20;;;;;;;;;;10523165;28;20221;-74
2022/08/06 06:38:30;;;;;;;0.93;0.20;;;;;;;;;;10524566;28;20205;-75
2022/08/06 06:43:37;;;;;;;0.20;0.20;;;;;;;;;;10520257;28;20210;-74
2022/08/06 06:48:43;;;;;;;0.20;0.20;;;;;;;;;;10518038;28;20751;-75
2022/08/06 06:53:46;;;;;;;0.32;0.20;;;;;;;;;;10513123;28;20232;-75
2022/08/06 06:58:49;;;;;;;0.20;0.20;;;;;;;;;;10489559;28;20286;-75
2022/08/06 07:03:52;;;;;;;1.15;0.20;;;;;;;;;;10520234;28;20278;-77
2022/08/06 07:08:54;;;;;;;0.10;0.10;;;;;;;;;;10495526;28;20271;-74
2022/08/06 07:13:57;;;;;;;0.20;0.20;;;;;;;;;;10496959;28;20228;-73
2022/08/06 07:19:02;;;;;;;1.90;0.20;;;;;;;;;;10494994;28;20274;-74
2022/08/06 07:24:03;;;;;;;0.20;0.20;;;;;;;;;;10492364;28;20217;-74
2022/08/06 07:29:05;;;;;;;0.32;0.20;;;;;;;;;;10494253;28;20233;-73
2022/08/06 07:34:07;;;;;;;0.10;0.10;;;;;;;;;;10518650;28;20227;-74
2022/08/06 07:39:10;;;;;;;0.10;0.10;;;;;;;;;;10513457;28;21499;-73
2022/08/06 07:44:12;;;;;;;0.10;0.10;;;;;;;;;;10523973;28;20304;-75
2022/08/06 07:49:14;;;;;;;0.45;0.13;;;;;;;;;;10517220;28;20320;-72
2022/08/06 07:54:16;;;;;;;0.22;0.13;;;;;;;;;;10518123;28;20799;-73
2022/08/06 07:59:17;;;;;;;0.20;0.20;;;;;;;;;;10506054;28;20218;-64
2022/08/06 08:09:39;;;;;;;0.17;0.17;;;;;;;;;;10512725;28;20267;-64
2022/08/06 08:14:40;;;;;;;0.20;0.10;;;;;;;;;;10516455;28;20703;-64
2022/08/06 08:19:41;;;;;;;0.10;0.10;;;;;;;;;;10527199;28;20218;-63
2022/08/06 08:24:44;;;;;;;0.10;0.10;;;;;;;;;;10520413;28;20269;-64
2022/08/06 08:29:45;;;;;;;0.10;0.10;;;;;;;;;;10522370;28;20240;-66
2022/08/06 08:34:46;;;;;;;0.10;0.10;;;;;;;;;;10519472;28;20209;-68
2022/08/06 08:39:48;;;;;;;0.30;0.30;;;;;;;;;;10527316;28;20351;-68
2022/08/06 08:44:49;;;;;;;0.10;0.10;;;;;;;;;;10492275;28;20228;-68
2022/08/06 08:49:52;;;;;;;0.10;0.10;;;;;;;;;;10517231;28;20237;-68
2022/08/06 08:54:55;;;;;;;0.03;0.03;;;;;;;;;;10513200;28;20690;-67
2022/08/06 08:59:57;;;;;;;0.10;0.10;;;;;;;;;;10518001;28;20993;-67
2022/08/06 09:04:58;;;;;;;0.10;0.10;;;;;;;;;;10511702;28;20217;-64
2022/08/06 09:10:00;;;;;;;0.10;0.10;;;;;;;;;;10482109;28;21005;-65
2022/08/06 09:15:01;;;;;;;0.10;0.10;;;;;;;;;;10517845;28;20643;-64
2022/08/06 09:20:04;;;;;;;0.20;0.10;;;;;;;;;;10520647;28;20209;-66
2022/08/06 09:25:05;;;;;;;0.10;0.10;;;;;;;;;;10498512;28;20577;-71
2022/08/06 09:30:07;;;;;;;0.10;0.10;;;;;;;;;;10524357;28;20292;-69
2022/08/06 09:35:19;;;;;;;0.10;0.10;;;;;;;;;;10523249;28;20184;-70
2022/08/06 09:40:20;;;;;;;0.10;0.10;;;;;;;;;;10500793;28;20224;-68
2022/08/06 09:45:22;;;;;;;0.10;0.10;;;;;;;;;;10526339;28;20835;-67
2022/08/06 09:50:42;;;;;;;0.10;0.10;;;;;;;;;;10525878;28;20256;-68
2022/08/06 09:55:44;;;;;;;0.10;0.10;;;;;;;;;;10522963;28;20294;-68
2022/08/06 10:00:45;;;;;;;0.10;0.10;;;;;;;;;;10521485;28;20636;-66
2022/08/06 10:05:46;;;;;;;0.10;0.10;;;;;;;;;;10524088;28;20209;-68
2022/08/06 10:10:49;;;;;;;0.20;0.20;;;;;;;;;;10503396;28;20226;-63
2022/08/06 10:15:51;;;;;;;0.10;0.10;;;;;;;;;;10525109;28;20216;-67
2022/08/06 10:21:12;;;;;;;0.10;0.10;;;;;;;;;;10498091;28;20224;-66
2022/08/06 10:26:14;;;;;;;0.10;0.10;;;;;;;;;;10529997;28;20221;-67
2022/08/06 10:31:16;;;;;;;0.20;0.20;;;;;;;;;;10520794;28;20225;-67
2022/08/06 10:36:20;;;;;;;0.52;0.10;;;;;;;;;;10517311;28;20209;-69
2022/08/06 10:41:22;;;;;;;0.70;0.10;;;;;;;;;;10521725;28;20238;-68
2022/08/06 10:46:23;;;;;;;0.10;0.10;;;;;;;;;;10500034;28;20226;-67
2022/08/06 10:51:25;;;;;;;0.10;0.10;;;;;;;;;;10494635;28;20225;-67
2022/08/06 10:56:26;;;;;;;0.10;0.10;;;;;;;;;;10518348;28;20584;-69
2022/08/06 11:01:27;;;;;;;0.10;0.10;;;;;;;;;;10518932;28;20223;-68
2022/08/06 11:06:37;;;;;;;0.10;0.10;;;;;;;;;;10525226;28;20704;-68
2022/08/06 11:11:44;;;;;;;0.05;0.05;;;;;;;;;;10524639;28;20233;-67
2022/08/06 11:16:55;;;;;;;0.10;0.10;;;;;;;;;;10512473;28;20651;-68
2022/08/06 11:21:56;;;;;;;0.05;0.05;;;;;;;;;;10531964;28;20213;-68
2022/08/06 11:26:57;;;;;;;0.10;0.10;;;;;;;;;;10524148;28;20213;-69
2022/08/06 11:31:58;;;;;;;0.10;0.10;;;;;;;;;;10497584;28;20217;-70
2022/08/06 11:36:59;;;;;;;0.10;0.10;;;;;;;;;;10525695;28;20216;-68
2022/08/06 11:42:02;;;;;;;0.00;0.00;;;;;;;;;;10522956;28;20213;-69
2022/08/06 11:47:10;;;;;;;0.00;0.00;;;;;;;;;;10524000;28;20783;-69
2022/08/06 11:52:30;;;;;;;0.10;0.10;;;;;;;;;;10531752;28;20279;-68
2022/08/06 11:57:31;;;;;;;0.38;0.10;;;;;;;;;;10505760;28;20213;-69
2022/08/06 12:02:41;;;;;;;0.03;0.03;;;;;;;;;;10536503;28;21078;-68
2022/08/06 12:07:44;;;;;;;0.20;0.10;;;;;;;;;;10535890;28;20705;-69
2022/08/06 12:12:49;;;;;;;0.10;0.10;;;;;;;;;;10526429;28;20217;-68
2022/08/06 12:17:56;;;;;;;0.10;0.10;;;;;;;;;;10530356;28;20338;-70
2022/08/06 12:22:58;;;;;;;0.10;0.10;;;;;;;;;;10537320;28;20221;-69
2022/08/06 12:27:59;;;;;;;0.10;0.10;;;;;;;;;;10532625;28;20245;-69
2022/08/06 12:33:01;;;;;;;0.10;0.10;;;;;;;;;;10521998;28;20255;-68
2022/08/06 12:38:02;;;;;;;0.00;0.00;;;;;;;;;;10505942;28;20661;-68
2022/08/06 12:43:04;;;;;;;0.10;0.10;;;;;;;;;;10535480;28;20217;-68
2022/08/06 12:48:10;;;;;;;0.10;0.10;;;;;;;;;;10518934;28;20344;-68
2022/08/06 12:53:13;;;;;;;0.00;0.00;;;;;;;;;;10522275;28;20217;-69
2022/08/06 12:58:19;;;;;;;0.10;0.00;;;;;;;;;;10523081;28;20260;-69
2022/08/06 13:03:21;;;;;;;0.00;0.00;;;;;;;;;;10522746;28;20292;-69
2022/08/06 13:08:22;;;;;;;0.10;0.10;;;;;;;;;;10516305;28;20693;-68
2022/08/06 13:13:37;;;;;;;0.10;0.10;;;;;;;;;;10517811;28;20216;-70
2022/08/06 13:18:39;;;;;;;0.20;0.10;;;;;;;;;;10535368;28;20247;-68
2022/08/06 13:23:44;;;;;;;0.10;0.10;;;;;;;;;;10524192;28;20328;-69
2022/08/06 13:29:13;;;;;;;0.05;0.05;;;;;;;;;;10498001;28;20739;-69
2022/08/06 13:34:17;;;;;;;0.10;0.10;;;;;;;;;;10508899;28;20228;-68
2022/08/06 13:39:19;;;;;;;0.00;0.00;;;;;;;;;;10519256;28;20210;-72
2022/08/06 13:44:27;;;;;;;0.10;0.10;;;;;;;;;;10508323;28;20255;-76
2022/08/06 13:49:28;;;;;;;0.38;0.10;;;;;;;;;;10518423;28;20792;-73
2022/08/06 13:54:29;;;;;;;0.08;0.08;;;;;;;;;;10522329;28;20229;-71
2022/08/06 13:59:31;;;;;;;0.00;0.00;;;;;;;;;;10519064;28;20239;-72
2022/08/06 14:04:32;;;;;;;0.10;0.10;;;;;;;;;;10513568;28;20265;-69
2022/08/06 14:09:34;;;;;;;0.05;0.05;;;;;;;;;;10517093;28;20209;-68
2022/08/06 14:14:35;;;;;;;0.10;0.10;;;;;;;;;;10515402;28;20236;-70
